Tenerife Norte / Los Rodeos GCXO

Aviation Digital Data Service (ADDS)

Output produced by METARs form (1656 UTC 17 August 2017)
METAR text: GCXO 171630Z 13007KT 100V170 CAVOK 31/06 Q1020 NOSIG
Conditions at: GCXO (TENERIFE/LOS ROD, ES) observed 1630 UTC 17 August 2017
Temperature: 31.0°C (88°F)
Dewpoint: 6.0°C (43°F) [RH = 21%]
Pressure (altimeter): 30.12 inches Hg (1020.0 mb)
Winds: from the SE (130 degrees) at 8 MPH (7 knots; 3.6 m/s)
Visibility: 6 or more miles (10+ km)
Ceiling: ceiling and visibility are OK
Clouds: unknown
Weather: no significant weather observed at this time

Forecast for: GCXO (TENERIFE/LOS ROD, ES)
Text: TAF GCXO 171400Z 1715/1815 13012KT CAVOK TX29/1813Z TN18/1805Z
Forecast period: 1500 to 2000 UTC 17 August 2017
Forecast type: FROM: standard forecast or significant change
Winds: from the SE (130 degrees) at 14 MPH (12 knots; 6.2 m/s)
Visibility: 6 or more miles (10+ km)
Clouds: not forecast
Weather: no significant weather forecast for this period
Text: BECMG 1720/1722 36006KT
Forecast period: 2000 UTC 17 August 2017 to 1500 UTC 18 August 2017
Forecast type: BECOMING: Conditions expected to become as follows by 2200 UTC 17 August 2017
Winds: from the N (360 degrees) at 7 MPH (6 knots; 3.1 m/s)
Visibility: 6 or more miles (10+ km)
Weather: no significant weather forecast for this period

Tenerife Sur / Aeropuerto GCTS

Aviation Digital Data Service (ADDS)

Output produced by METARs form (1656 UTC 17 August 2017)
METAR text: GCTS 171630Z 23008KT 200V260 CAVOK 28/19 Q1016 WS R25 NOSIG
Conditions at: GCTS (TENERIFE SUR/REI, ES) observed 1630 UTC 17 August 2017
Temperature: 28.0°C (82°F)
Dewpoint: 19.0°C (66°F) [RH = 58%]
Pressure (altimeter): 30.00 inches Hg (1016.0 mb)
Winds: from the SW (230 degrees) at 9 MPH (8 knots; 4.2 m/s)
Visibility: 6 or more miles (10+ km)
Ceiling: ceiling and visibility are OK
Clouds: unknown
Weather: no significant weather observed at this time

Forecast for: GCTS (TENERIFE SUR/REI, ES)
Text: TAF GCTS 171400Z 1715/1815 08020KT CAVOK TX30/1813Z TN21/1805Z
Forecast period: 1500 to 2000 UTC 17 August 2017
Forecast type: FROM: standard forecast or significant change
Winds: from the E (80 degrees) at 23 MPH (20 knots; 10.4 m/s)
Visibility: 6 or more miles (10+ km)
Clouds: not forecast
Weather: no significant weather forecast for this period
Text: TEMPO 1715/1717 22012KT
Forecast period: 1500 to 1700 UTC 17 August 2017
Forecast type: TEMPORARY: The following changes expected for less than half the time period
Winds: from the SW (220 degrees) at 14 MPH (12 knots; 6.2 m/s)
Weather: no significant weather forecast for this period
Text: PROB40
Forecast period: 1500 to 1800 UTC 17 August 2017
Forecast type: TEMPORARY: The following changes expected for less than half the time period
Winds: from the ENE (70 degrees) at 25 MPH (22 knots; 11.4 m/s)
gusting to 39 MPH (34 knots; 17.7 m/s)
Weather: no significant weather forecast for this period
Text: TEMPO 1715/1718 07022G34KT
Forecast period: 2000 UTC 17 August 2017 to 1500 UTC 18 August 2017
Forecast type: BECOMING: Conditions expected to become as follows by 2200 UTC 17 August 2017
Winds: from the NNE (30 degrees) at 8 MPH (7 knots; 3.6 m/s)
Visibility: 6 or more miles (10+ km)
Weather: no significant weather forecast for this period

La Palma / Aeropuerto GCLA

Aviation Digital Data Service (ADDS)

Output produced by METARs form (1656 UTC 17 August 2017)
METAR text: GCLA 171630Z 03013KT CAVOK 26/21 Q1018
Conditions at: GCLA (LA PALMA AIRPORT, ES) observed 1630 UTC 17 August 2017
Temperature: 26.0°C (79°F)
Dewpoint: 21.0°C (70°F) [RH = 74%]
Pressure (altimeter): 30.06 inches Hg (1018.0 mb)
Winds: from the NNE (30 degrees) at 15 MPH (13 knots; 6.8 m/s)
Visibility: 6 or more miles (10+ km)
Ceiling: ceiling and visibility are OK
Clouds: unknown
Weather: no significant weather observed at this time

Forecast for: GCLA (LA PALMA AIRPORT, ES)
Text: TAF GCLA 171400Z 1715/1815 03012KT CAVOK TX29/1813Z TN23/1805Z
Forecast period: 1500 UTC 17 August 2017 to 1500 UTC 18 August 2017
Forecast type: FROM: standard forecast or significant change
Winds: from the NNE (30 degrees) at 14 MPH (12 knots; 6.2 m/s)
Visibility: 6 or more miles (10+ km)
Clouds: not forecast
Weather: no significant weather forecast for this period
Text: PROB40
Forecast period: 2200 UTC 17 August 2017 to 0900 UTC 18 August 2017
Forecast type: TEMPORARY: The following changes expected for less than half the time period
Winds: from the NNW (330 degrees) at 8 MPH (7 knots; 3.6 m/s)
Weather: no significant weather forecast for this period

Hierro / Aeropuerto GCHI

Aviation Digital Data Service (ADDS)

Output produced by METARs form (1656 UTC 17 August 2017)
METAR text: GCHI 171630Z 36020KT 9999 FEW017 25/21 Q1017
Conditions at: GCHI (HIERRO AIRPORT , ES) observed 1630 UTC 17 August 2017
Temperature: 25.0°C (77°F)
Dewpoint: 21.0°C (70°F) [RH = 79%]
Pressure (altimeter): 30.03 inches Hg (1017.0 mb)
Winds: from the N (360 degrees) at 23 MPH (20 knots; 10.4 m/s)
Visibility: 6 or more miles (10+ km)
Ceiling: at least 12,000 feet AGL
Clouds: few clouds at 1700 feet AGL
Weather: no significant weather observed at this time

Forecast for: GCHI (HIERRO AIRPORT , ES)
Text: TAF GCHI 171400Z 1715/1815 36012KT 9999 FEW020 TX29/1813Z TN23/1805Z
Forecast period: 1500 UTC 17 August 2017 to 1500 UTC 18 August 2017
Forecast type: FROM: standard forecast or significant change
Winds: from the N (360 degrees) at 14 MPH (12 knots; 6.2 m/s)
Visibility: 6 or more miles (10+ km)
Clouds: few clouds at 2000 feet AGL
Weather: no significant weather forecast for this period

Gran Canaria / Aeropuerto GCLP

Aviation Digital Data Service (ADDS)

Output produced by METARs form (1656 UTC 17 August 2017)
METAR text: GCLP 171630Z 02020KT 350V050 CAVOK 28/19 Q1016 NOSIG
Conditions at: GCLP (LAS PALMAS/GANDO, ES) observed 1630 UTC 17 August 2017
Temperature: 28.0°C (82°F)
Dewpoint: 19.0°C (66°F) [RH = 58%]
Pressure (altimeter): 30.00 inches Hg (1016.0 mb)
Winds: from the NNE (20 degrees) at 23 MPH (20 knots; 10.4 m/s)
Visibility: 6 or more miles (10+ km)
Ceiling: ceiling and visibility are OK
Clouds: unknown
Weather: no significant weather observed at this time

Forecast for: GCLP (LAS PALMAS/GANDO, ES)
Text: TAF GCLP 171400Z 1715/1815 03023KT CAVOK TX30/1813Z TN22/1805Z
Forecast period: 1500 UTC 17 August 2017 to 1500 UTC 18 August 2017
Forecast type: FROM: standard forecast or significant change
Winds: from the NNE (30 degrees) at 26 MPH (23 knots; 12.0 m/s)
Visibility: 6 or more miles (10+ km)
Clouds: not forecast
Weather: no significant weather forecast for this period

Fuerteventura / Aeropuerto GCFV

Aviation Digital Data Service (ADDS)

Output produced by METARs form (1656 UTC 17 August 2017)
METAR text: GCFV 171630Z 05011KT CAVOK 27/21 Q1015
Conditions at: GCFV (FUERTEVENTURA AR, ES) observed 1630 UTC 17 August 2017
Temperature: 27.0°C (81°F)
Dewpoint: 21.0°C (70°F) [RH = 70%]
Pressure (altimeter): 29.97 inches Hg (1015.0 mb)
Winds: from the NE (50 degrees) at 13 MPH (11 knots; 5.7 m/s)
Visibility: 6 or more miles (10+ km)
Ceiling: ceiling and visibility are OK
Clouds: unknown
Weather: no significant weather observed at this time

Forecast for: GCFV (FUERTEVENTURA AR, ES)
Text: TAF GCFV 171400Z 1715/1815 03015KT 9999 FEW025 TX30/1813Z TN24/1805Z
Forecast period: 1500 UTC 17 August 2017 to 1500 UTC 18 August 2017
Forecast type: FROM: standard forecast or significant change
Winds: from the NNE (30 degrees) at 17 MPH (15 knots; 7.8 m/s)
Visibility: 6 or more miles (10+ km)
Clouds: few clouds at 2500 feet AGL
Weather: no significant weather forecast for this period

Lanzarote / Aeropuerto GCRR

Aviation Digital Data Service (ADDS)

Output produced by METARs form (1656 UTC 17 August 2017)
METAR text: GCRR 171630Z 36017KT 9999 FEW040 31/18 Q1015
Conditions at: GCRR (ARRECIFE/LANZARO, ES) observed 1630 UTC 17 August 2017
Temperature: 31.0°C (88°F)
Dewpoint: 18.0°C (64°F) [RH = 46%]
Pressure (altimeter): 29.97 inches Hg (1015.0 mb)
Winds: from the N (360 degrees) at 20 MPH (17 knots; 8.8 m/s)
Visibility: 6 or more miles (10+ km)
Ceiling: at least 12,000 feet AGL
Clouds: few clouds at 4000 feet AGL
Weather: no significant weather observed at this time

Forecast for: GCRR (ARRECIFE/LANZARO, ES)
Text: TAF GCRR 171400Z 1715/1815 36018KT CAVOK TX32/1813Z TN22/1805Z
Forecast period: 1500 UTC 17 August 2017 to 1500 UTC 18 August 2017
Forecast type: FROM: standard forecast or significant change
Winds: from the N (360 degrees) at 21 MPH (18 knots; 9.4 m/s)
Visibility: 6 or more miles (10+ km)
Clouds: not forecast
Weather: no significant weather forecast for this period